Time;durP1;ratioP1;P1;durP2;ratioP2;P2;SDS_P1;SDS_P2;PMS_P1;PMS_P2;Temp;Humidity;BMP_temperature;BMP_pressure;BME280_temperature;BME280_humidity;BME280_pressure;Samples;Min_cycle;Max_cycle;Signal;HPM_P1;HPM_P2
2022/05/15 00:01:05;;;;;;;45.15;13.30;;;;;;;;;;4987020;28;20090;-62
2022/05/15 00:03:33;;;;;;;30.95;12.57;;;;;;;;;;4960459;28;20044;-62
2022/05/15 00:06:00;;;;;;;41.03;12.88;;;;;;;;;;4979979;28;20052;-62
2022/05/15 00:08:26;;;;;;;43.10;13.52;;;;;;;;;;4992291;28;20033;-62
2022/05/15 00:10:52;;;;;;;36.13;13.02;;;;;;;;;;4995210;28;20045;-62
2022/05/15 00:13:17;;;;;;;43.83;14.10;;;;;;;;;;4994578;28;20037;-63
2022/05/15 00:15:43;;;;;;;38.55;13.13;;;;;;;;;;4998745;28;20842;-62
2022/05/15 00:18:09;;;;;;;40.85;13.05;;;;;;;;;;5000487;28;20041;-62
2022/05/15 00:20:35;;;;;;;36.10;12.85;;;;;;;;;;4997526;28;20385;-63
2022/05/15 00:23:00;;;;;;;38.22;12.68;;;;;;;;;;5000537;28;20044;-63
2022/05/15 00:25:25;;;;;;;44.20;12.85;;;;;;;;;;5000315;28;20041;-62
2022/05/15 00:27:51;;;;;;;39.58;12.38;;;;;;;;;;5000880;28;20033;-63
2022/05/15 00:30:16;;;;;;;44.22;13.40;;;;;;;;;;5001229;28;20140;-62
2022/05/15 00:32:42;;;;;;;37.35;12.82;;;;;;;;;;5015276;28;20053;-62
2022/05/15 00:35:07;;;;;;;41.33;12.65;;;;;;;;;;5001294;28;20075;-64
2022/05/15 00:37:32;;;;;;;46.08;12.10;;;;;;;;;;4991527;28;20036;-63
2022/05/15 00:40:00;;;;;;;41.70;11.65;;;;;;;;;;5002082;28;20033;-63
2022/05/15 00:42:26;;;;;;;38.40;12.38;;;;;;;;;;4997847;28;20770;-63
2022/05/15 00:44:53;;;;;;;37.40;13.85;;;;;;;;;;4999854;28;21105;-63
2022/05/15 00:47:19;;;;;;;42.88;13.50;;;;;;;;;;4998174;28;20041;-62
2022/05/15 00:49:48;;;;;;;37.35;12.10;;;;;;;;;;4998635;28;20041;-63
2022/05/15 00:52:16;;;;;;;35.05;12.45;;;;;;;;;;4996911;28;20038;-63
2022/05/15 00:54:53;;;;;;;42.70;13.20;;;;;;;;;;4997343;28;20457;-63
2022/05/15 00:57:23;;;;;;;36.85;12.82;;;;;;;;;;4997767;28;20045;-63
2022/05/15 00:59:54;;;;;;;42.20;15.27;;;;;;;;;;4999412;28;20041;-63
2022/05/15 01:02:20;;;;;;;39.22;13.10;;;;;;;;;;5011703;28;20298;-63
2022/05/15 01:04:46;;;;;;;49.03;14.23;;;;;;;;;;4995880;28;20041;-64
2022/05/15 01:07:13;;;;;;;46.85;14.50;;;;;;;;;;4997379;28;20291;-63
2022/05/15 01:09:38;;;;;;;45.10;14.57;;;;;;;;;;4999937;28;20148;-63
2022/05/15 01:12:04;;;;;;;35.40;12.80;;;;;;;;;;5014534;28;20037;-62
2022/05/15 01:14:32;;;;;;;43.35;13.18;;;;;;;;;;4999516;28;20062;-63
2022/05/15 01:16:57;;;;;;;45.20;13.38;;;;;;;;;;4986787;28;21132;-63
2022/05/15 01:19:31;;;;;;;36.42;13.10;;;;;;;;;;4999470;28;20091;-63
2022/05/15 01:21:57;;;;;;;43.10;14.55;;;;;;;;;;4998853;28;20231;-63
2022/05/15 01:24:23;;;;;;;42.00;14.27;;;;;;;;;;5000108;28;20060;-63
2022/05/15 01:26:48;;;;;;;40.95;13.57;;;;;;;;;;4979478;28;20040;-63
2022/05/15 01:29:14;;;;;;;40.40;11.80;;;;;;;;;;4993302;28;20090;-63
2022/05/15 01:31:39;;;;;;;43.03;10.73;;;;;;;;;;4987119;28;20073;-63
2022/05/15 01:34:09;;;;;;;37.90;9.88;;;;;;;;;;4998673;28;20040;-63
2022/05/15 01:36:34;;;;;;;38.90;9.45;;;;;;;;;;5006627;28;20035;-63
2022/05/15 01:39:00;;;;;;;38.38;9.55;;;;;;;;;;5009890;28;20044;-62
2022/05/15 01:41:26;;;;;;;34.08;8.68;;;;;;;;;;5010957;28;20042;-62
2022/05/15 01:43:54;;;;;;;39.92;10.52;;;;;;;;;;4988177;28;21232;-62
2022/05/15 01:46:24;;;;;;;32.35;9.23;;;;;;;;;;4998139;28;20037;-63
2022/05/15 01:48:50;;;;;;;35.25;8.65;;;;;;;;;;4989746;28;20056;-64
2022/05/15 01:51:15;;;;;;;32.20;9.18;;;;;;;;;;5009832;28;20044;-63
2022/05/15 01:53:41;;;;;;;43.13;9.10;;;;;;;;;;4996220;28;20040;-62
2022/05/15 01:56:06;;;;;;;30.05;8.75;;;;;;;;;;4995109;28;20077;-62
2022/05/15 01:58:34;;;;;;;33.55;7.70;;;;;;;;;;4995831;28;20072;-63
2022/05/15 02:00:59;;;;;;;36.10;8.38;;;;;;;;;;5002673;28;20037;-63
2022/05/15 02:03:25;;;;;;;36.17;9.20;;;;;;;;;;4997865;28;20032;-63
2022/05/15 02:05:50;;;;;;;31.27;7.90;;;;;;;;;;4997841;28;20049;-62
2022/05/15 02:08:18;;;;;;;35.47;8.52;;;;;;;;;;4998767;28;20132;-62
2022/05/15 02:10:49;;;;;;;31.92;8.85;;;;;;;;;;4998084;28;20037;-63
2022/05/15 02:13:15;;;;;;;35.80;8.88;;;;;;;;;;4997173;28;20044;-62
2022/05/15 02:15:41;;;;;;;34.15;9.45;;;;;;;;;;4996555;28;20073;-62
2022/05/15 02:18:06;;;;;;;35.88;8.38;;;;;;;;;;4997232;28;20048;-63
2022/05/15 02:20:32;;;;;;;39.63;8.68;;;;;;;;;;4998076;28;20354;-63
2022/05/15 02:22:58;;;;;;;32.67;8.93;;;;;;;;;;4996585;28;20066;-63
2022/05/15 02:25:23;;;;;;;30.05;8.10;;;;;;;;;;4996030;28;20403;-62
2022/05/15 02:27:51;;;;;;;39.40;9.60;;;;;;;;;;4998347;28;20033;-63
2022/05/15 02:30:20;;;;;;;35.33;8.73;;;;;;;;;;4997387;28;20032;-63
2022/05/15 02:32:46;;;;;;;33.88;8.80;;;;;;;;;;4995090;28;20548;-63
2022/05/15 02:35:11;;;;;;;36.97;8.80;;;;;;;;;;4994173;28;20172;-62
2022/05/15 02:37:37;;;;;;;36.42;8.43;;;;;;;;;;4993562;28;20035;-62
2022/05/15 02:40:05;;;;;;;34.47;8.20;;;;;;;;;;4995998;28;20170;-62
2022/05/15 02:42:31;;;;;;;30.67;8.25;;;;;;;;;;4997113;28;20709;-63
2022/05/15 02:44:56;;;;;;;38.65;8.02;;;;;;;;;;4996311;28;20037;-63
2022/05/15 02:47:21;;;;;;;31.30;7.32;;;;;;;;;;4996742;28;20182;-63
2022/05/15 02:52:31;;;;;;;33.33;7.28;;;;;;;;;;4998671;28;20033;-63
2022/05/15 02:54:59;;;;;;;39.25;8.05;;;;;;;;;;4989132;28;20903;-63
2022/05/15 02:57:29;;;;;;;40.58;8.23;;;;;;;;;;4993199;28;20044;-63
2022/05/15 02:59:54;;;;;;;32.03;8.18;;;;;;;;;;4997994;28;20041;-63
2022/05/15 03:02:19;;;;;;;28.70;8.00;;;;;;;;;;4984168;28;20110;-62
2022/05/15 03:04:47;;;;;;;43.53;8.52;;;;;;;;;;4999839;28;20167;-62
2022/05/15 03:07:12;;;;;;;37.50;8.88;;;;;;;;;;4981676;28;20162;-63
2022/05/15 03:09:37;;;;;;;31.35;8.05;;;;;;;;;;4994903;28;20032;-63
2022/05/15 03:12:03;;;;;;;32.28;8.25;;;;;;;;;;4994687;28;21066;-63
2022/05/15 03:14:28;;;;;;;37.75;8.30;;;;;;;;;;4997042;28;20075;-63
2022/05/15 03:16:53;;;;;;;33.13;7.97;;;;;;;;;;4984593;28;20133;-62
2022/05/15 03:19:19;;;;;;;40.13;8.63;;;;;;;;;;4997719;28;20082;-63
2022/05/15 03:21:44;;;;;;;37.67;8.00;;;;;;;;;;4996321;28;20060;-63
2022/05/15 03:24:12;;;;;;;37.47;8.20;;;;;;;;;;4994337;28;20465;-62
2022/05/15 03:26:41;;;;;;;29.00;6.95;;;;;;;;;;4996126;28;20049;-63
2022/05/15 03:29:08;;;;;;;35.30;8.50;;;;;;;;;;4996527;28;20062;-63
2022/05/15 03:31:35;;;;;;;36.83;9.80;;;;;;;;;;4991935;28;20136;-63
2022/05/15 03:34:02;;;;;;;41.00;11.85;;;;;;;;;;5005813;28;20656;-63
2022/05/15 03:36:27;;;;;;;49.90;14.50;;;;;;;;;;4996412;28;20037;-63
2022/05/15 03:38:52;;;;;;;43.92;13.15;;;;;;;;;;4996202;28;20032;-62
2022/05/15 03:41:18;;;;;;;44.85;13.65;;;;;;;;;;4961512;28;20111;-62
2022/05/15 03:43:44;;;;;;;41.38;11.95;;;;;;;;;;4995571;28;20985;-63
2022/05/15 03:46:13;;;;;;;39.25;11.25;;;;;;;;;;4997214;28;20048;-62
2022/05/15 03:48:38;;;;;;;37.78;11.20;;;;;;;;;;5002416;28;20804;-63
2022/05/15 03:51:04;;;;;;;36.70;11.48;;;;;;;;;;4999816;28;20048;-63
2022/05/15 03:53:33;;;;;;;41.50;12.18;;;;;;;;;;4997646;28;20047;-63
2022/05/15 03:55:58;;;;;;;40.90;12.93;;;;;;;;;;5010961;28;20037;-62
2022/05/15 03:58:32;;;;;;;41.80;13.15;;;;;;;;;;4995759;28;20115;-62
2022/05/15 04:00:57;;;;;;;39.17;12.95;;;;;;;;;;4998979;28;20051;-63
2022/05/15 04:03:25;;;;;;;40.47;12.35;;;;;;;;;;5000883;28;20037;-62
2022/05/15 04:05:50;;;;;;;35.72;11.57;;;;;;;;;;4997452;28;20114;-62
2022/05/15 04:08:16;;;;;;;38.67;11.23;;;;;;;;;;4998692;28;20041;-62
2022/05/15 04:10:45;;;;;;;31.98;11.13;;;;;;;;;;4998942;28;20062;-62
2022/05/15 04:13:11;;;;;;;37.75;11.25;;;;;;;;;;4996502;28;20045;-62
2022/05/15 04:15:36;;;;;;;41.15;11.32;;;;;;;;;;5007723;28;20529;-62
2022/05/15 04:18:04;;;;;;;39.45;11.02;;;;;;;;;;4982931;28;20050;-63
2022/05/15 04:20:29;;;;;;;36.72;10.98;;;;;;;;;;4999177;28;20126;-62
2022/05/15 04:22:56;;;;;;;39.30;11.18;;;;;;;;;;5000066;28;20100;-62
2022/05/15 04:25:21;;;;;;;40.20;11.13;;;;;;;;;;4972221;28;20041;-62
2022/05/15 04:27:47;;;;;;;43.53;11.85;;;;;;;;;;4993280;28;20033;-63
2022/05/15 04:30:14;;;;;;;38.30;10.73;;;;;;;;;;5012528;28;20119;-62
2022/05/15 04:32:42;;;;;;;32.85;10.43;;;;;;;;;;4999466;28;20038;-62
2022/05/15 04:35:09;;;;;;;37.42;10.30;;;;;;;;;;4995734;28;20140;-63
2022/05/15 04:37:34;;;;;;;36.70;9.50;;;;;;;;;;4991573;28;20072;-64
2022/05/15 04:40:02;;;;;;;31.27;9.30;;;;;;;;;;4999891;28;20037;-65
2022/05/15 04:42:28;;;;;;;26.85;9.48;;;;;;;;;;5012977;28;20042;-63
2022/05/15 04:44:53;;;;;;;30.23;9.20;;;;;;;;;;5000420;28;20033;-65
2022/05/15 04:47:19;;;;;;;26.00;8.73;;;;;;;;;;4999254;28;20091;-65
2022/05/15 04:49:44;;;;;;;30.48;8.73;;;;;;;;;;5003985;28;20119;-68
2022/05/15 04:52:10;;;;;;;34.97;9.48;;;;;;;;;;5001818;28;20103;-68
2022/05/15 04:54:37;;;;;;;35.03;9.82;;;;;;;;;;5002379;28;20048;-61
2022/05/15 04:57:02;;;;;;;37.22;8.23;;;;;;;;;;4998056;28;20152;-61
2022/05/15 04:59:28;;;;;;;34.30;8.38;;;;;;;;;;4998492;28;20037;-61
2022/05/15 05:01:53;;;;;;;28.10;8.20;;;;;;;;;;5000908;28;20786;-62
2022/05/15 05:04:18;;;;;;;31.80;8.27;;;;;;;;;;4996320;28;20036;-61
2022/05/15 05:06:44;;;;;;;24.17;7.55;;;;;;;;;;4999557;28;21016;-63
2022/05/15 05:09:11;;;;;;;30.60;8.13;;;;;;;;;;4999718;28;20446;-61
2022/05/15 05:11:36;;;;;;;35.17;7.60;;;;;;;;;;4997540;28;20668;-62
2022/05/15 05:14:06;;;;;;;31.55;7.72;;;;;;;;;;4997347;28;20040;-62
2022/05/15 05:16:33;;;;;;;29.60;7.85;;;;;;;;;;4997620;28;20070;-62
2022/05/15 05:19:01;;;;;;;29.58;8.18;;;;;;;;;;4996682;28;20037;-63
2022/05/15 05:21:29;;;;;;;25.05;7.03;;;;;;;;;;5003950;28;20047;-63
2022/05/15 05:23:57;;;;;;;31.25;7.18;;;;;;;;;;4996573;28;20080;-64
2022/05/15 05:26:24;;;;;;;27.23;7.88;;;;;;;;;;4999790;28;20087;-64
2022/05/15 05:28:50;;;;;;;27.02;7.88;;;;;;;;;;5013929;28;20065;-62
2022/05/15 05:31:16;;;;;;;28.58;7.75;;;;;;;;;;4997965;28;20040;-63
2022/05/15 05:33:41;;;;;;;28.40;7.78;;;;;;;;;;4984480;28;20297;-63
2022/05/15 05:36:07;;;;;;;25.20;6.65;;;;;;;;;;4998507;28;20121;-62
2022/05/15 05:38:33;;;;;;;23.60;7.05;;;;;;;;;;5006856;28;20829;-63
2022/05/15 05:40:58;;;;;;;23.38;7.53;;;;;;;;;;4998586;28;20847;-63
2022/05/15 05:43:26;;;;;;;24.42;7.22;;;;;;;;;;4990553;28;20080;-64
2022/05/15 05:45:54;;;;;;;25.75;7.57;;;;;;;;;;4995690;28;20132;-64
2022/05/15 05:48:19;;;;;;;24.15;6.90;;;;;;;;;;4997594;28;20048;-63
2022/05/15 05:50:44;;;;;;;23.35;6.65;;;;;;;;;;4998558;28;20025;-61
2022/05/15 05:53:10;;;;;;;26.38;7.75;;;;;;;;;;4996946;28;20047;-61
2022/05/15 05:55:35;;;;;;;21.42;5.95;;;;;;;;;;4997844;28;20029;-65
2022/05/15 05:58:02;;;;;;;23.52;5.95;;;;;;;;;;4996990;28;20033;-62
2022/05/15 06:00:30;;;;;;;25.77;6.57;;;;;;;;;;4997907;28;20037;-62
2022/05/15 06:04:39;;;;;;;24.38;6.30;;;;;;;;;;4996105;28;20041;-62
2022/05/15 06:05:43;;;;;;;25.20;6.32;;;;;;;;;;4997189;28;20172;-64
2022/05/15 06:08:09;;;;;;;23.70;7.18;;;;;;;;;;4995869;28;20181;-61
2022/05/15 06:10:34;;;;;;;22.33;6.40;;;;;;;;;;4997033;28;21639;-62
2022/05/15 06:12:59;;;;;;;21.00;6.13;;;;;;;;;;4996575;28;20832;-64
2022/05/15 06:15:27;;;;;;;21.58;6.10;;;;;;;;;;4996621;28;20202;-62
2022/05/15 06:17:52;;;;;;;19.25;6.32;;;;;;;;;;4998433;28;20093;-63
2022/05/15 06:20:22;;;;;;;22.80;6.60;;;;;;;;;;4997038;28;20033;-62
2022/05/15 06:22:48;;;;;;;22.13;6.22;;;;;;;;;;4997458;28;20220;-62
2022/05/15 06:25:13;;;;;;;19.10;5.82;;;;;;;;;;4996364;28;20101;-61
2022/05/15 06:27:39;;;;;;;20.75;6.43;;;;;;;;;;4995657;28;20631;-62
2022/05/15 06:30:07;;;;;;;24.15;6.15;;;;;;;;;;4992013;28;20136;-63
2022/05/15 06:32:32;;;;;;;21.30;5.70;;;;;;;;;;4996021;28;20037;-62
2022/05/15 06:34:58;;;;;;;24.48;6.22;;;;;;;;;;5011597;28;20044;-62
2022/05/15 06:37:24;;;;;;;21.08;6.18;;;;;;;;;;4996944;28;20041;-62
2022/05/15 06:39:52;;;;;;;18.85;5.75;;;;;;;;;;5007199;28;20037;-63
2022/05/15 06:42:17;;;;;;;20.02;6.38;;;;;;;;;;4994265;28;20079;-63
2022/05/15 06:44:42;;;;;;;17.73;5.78;;;;;;;;;;4995721;28;20037;-63
2022/05/15 06:47:10;;;;;;;22.15;6.95;;;;;;;;;;4987252;28;20155;-61
2022/05/15 06:49:36;;;;;;;20.50;5.78;;;;;;;;;;4993109;28;20064;-64
2022/05/15 06:52:01;;;;;;;19.48;6.10;;;;;;;;;;4996066;28;20756;-63
2022/05/15 06:54:29;;;;;;;21.08;5.75;;;;;;;;;;4993622;28;20387;-62
2022/05/15 06:59:56;;;;;;;18.92;5.55;;;;;;;;;;4953197;28;20037;-64
2022/05/15 07:02:25;;;;;;;17.75;5.28;;;;;;;;;;4986275;28;20064;-61
2022/05/15 07:04:52;;;;;;;16.35;4.88;;;;;;;;;;4988279;28;20033;-62
2022/05/15 07:07:17;;;;;;;19.98;5.75;;;;;;;;;;5008490;28;20822;-64
2022/05/15 07:09:42;;;;;;;16.98;5.20;;;;;;;;;;4995814;28;20041;-62
2022/05/15 07:12:08;;;;;;;18.58;5.30;;;;;;;;;;5012100;28;20150;-65
2022/05/15 07:14:34;;;;;;;17.17;4.88;;;;;;;;;;5001011;28;20041;-69
2022/05/15 07:16:59;;;;;;;17.08;5.20;;;;;;;;;;4981649;28;20092;-68
2022/05/15 07:19:24;;;;;;;19.88;4.95;;;;;;;;;;4997778;28;20569;-68
2022/05/15 07:21:50;;;;;;;19.20;5.25;;;;;;;;;;4996970;28;20041;-68
2022/05/15 07:24:19;;;;;;;16.67;4.93;;;;;;;;;;4996719;28;20067;-66
2022/05/15 07:26:45;;;;;;;14.10;5.13;;;;;;;;;;4999090;28;21022;-65
2022/05/15 07:29:14;;;;;;;16.35;4.80;;;;;;;;;;5001359;28;20048;-67
2022/05/15 07:31:41;;;;;;;17.27;5.25;;;;;;;;;;5002545;28;20842;-64
2022/05/15 07:34:07;;;;;;;16.90;5.13;;;;;;;;;;4998679;28;20040;-68
2022/05/15 07:36:33;;;;;;;19.65;5.10;;;;;;;;;;5008551;28;20059;-67
2022/05/15 07:38:58;;;;;;;14.80;4.70;;;;;;;;;;4998913;28;20041;-67
2022/05/15 07:41:23;;;;;;;15.10;4.90;;;;;;;;;;4997560;28;20156;-67
2022/05/15 07:43:49;;;;;;;19.13;5.35;;;;;;;;;;4993374;28;20714;-68
2022/05/15 07:46:15;;;;;;;15.80;4.82;;;;;;;;;;4997195;28;21076;-67
2022/05/15 07:48:40;;;;;;;19.10;5.03;;;;;;;;;;4996242;28;20033;-67
2022/05/15 07:51:05;;;;;;;17.58;5.20;;;;;;;;;;5000757;28;20041;-65
2022/05/15 07:53:30;;;;;;;18.63;4.93;;;;;;;;;;5010961;28;20037;-67
2022/05/15 07:55:59;;;;;;;16.60;4.57;;;;;;;;;;4998287;28;20037;-67
2022/05/15 07:58:25;;;;;;;17.50;4.95;;;;;;;;;;5005097;28;20047;-67
2022/05/15 08:00:52;;;;;;;18.13;4.85;;;;;;;;;;4999722;28;20156;-67
2022/05/15 08:03:18;;;;;;;15.70;4.72;;;;;;;;;;4999114;28;20045;-67
2022/05/15 08:08:30;;;;;;;15.82;5.07;;;;;;;;;;4989638;28;20029;-67
2022/05/15 08:10:55;;;;;;;17.70;4.82;;;;;;;;;;4978513;28;20150;-66
2022/05/15 08:13:21;;;;;;;14.48;4.68;;;;;;;;;;4997132;28;20470;-67
2022/05/15 08:15:47;;;;;;;16.13;4.75;;;;;;;;;;4996279;28;20199;-67
2022/05/15 08:23:45;;;;;;;16.55;4.30;;;;;;;;;;4997609;28;22375;-66
2022/05/15 08:26:11;;;;;;;17.73;5.15;;;;;;;;;;4994970;28;20041;-66
2022/05/15 08:28:37;;;;;;;18.85;4.55;;;;;;;;;;4995480;28;20052;-65
2022/05/15 08:31:03;;;;;;;15.32;4.78;;;;;;;;;;4997723;28;21096;-67
2022/05/15 08:33:30;;;;;;;15.52;4.55;;;;;;;;;;4997867;28;20869;-67
2022/05/15 08:35:56;;;;;;;15.13;4.75;;;;;;;;;;4998810;28;20044;-66
2022/05/15 08:38:21;;;;;;;13.90;4.65;;;;;;;;;;4997242;28;20033;-68
2022/05/15 08:40:50;;;;;;;14.45;4.57;;;;;;;;;;4995417;28;20114;-68
2022/05/15 08:43:18;;;;;;;19.33;5.20;;;;;;;;;;5001476;28;20037;-69
2022/05/15 08:45:50;;;;;;;18.10;4.78;;;;;;;;;;4986120;28;20048;-70
2022/05/15 08:48:16;;;;;;;16.25;4.93;;;;;;;;;;4999524;28;20790;-67
2022/05/15 08:50:43;;;;;;;16.73;4.88;;;;;;;;;;4998072;28;20044;-68
2022/05/15 08:53:22;;;;;;;18.52;5.38;;;;;;;;;;4995680;28;20043;-67
2022/05/15 08:55:49;;;;;;;15.13;5.10;;;;;;;;;;4976036;28;20034;-69
2022/05/15 08:58:36;;;;;;;17.55;5.03;;;;;;;;;;4993848;28;20048;-67
2022/05/15 09:01:05;;;;;;;20.48;5.18;;;;;;;;;;4993052;28;20041;-68
2022/05/15 09:03:35;;;;;;;;;;;;;;;;;;4999181;28;20033;-68
2022/05/15 09:06:15;;;;;;;16.83;5.20;;;;;;;;;;4999328;28;19928;-69
2022/05/15 09:08:46;;;;;;;18.67;5.15;;;;;;;;;;4998929;28;20045;-68
2022/05/15 09:11:12;;;;;;;17.52;5.50;;;;;;;;;;4997193;28;20052;-69
2022/05/15 09:13:41;;;;;;;17.08;5.22;;;;;;;;;;4996952;28;20049;-68
2022/05/15 09:16:15;;;;;;;15.98;5.32;;;;;;;;;;4991920;28;20131;-69
2022/05/15 09:18:40;;;;;;;17.50;5.25;;;;;;;;;;4994250;28;20033;-67
2022/05/15 09:21:10;;;;;;;15.68;5.53;;;;;;;;;;4998342;28;20045;-68
2022/05/15 09:23:48;;;;;;;14.05;4.88;;;;;;;;;;4994236;28;20041;-68
2022/05/15 09:26:27;;;;;;;17.85;5.97;;;;;;;;;;4992851;28;20987;-67
2022/05/15 09:28:54;;;;;;;17.25;5.65;;;;;;;;;;4991085;28;20044;-68
2022/05/15 09:31:30;;;;;;;15.70;5.03;;;;;;;;;;4995425;28;20128;-68
2022/05/15 09:34:01;;;;;;;16.20;5.25;;;;;;;;;;4995141;28;20596;-68
2022/05/15 09:36:30;;;;;;;17.10;5.10;;;;;;;;;;4989988;28;20032;-69
2022/05/15 09:39:14;;;;;;;17.67;5.28;;;;;;;;;;4991110;28;20125;-68
2022/05/15 09:44:44;;;;;;;17.48;4.82;;;;;;;;;;4991942;28;20041;-68
2022/05/15 09:47:18;;;;;;;16.17;4.53;;;;;;;;;;4985835;28;20076;-68
2022/05/15 09:49:45;;;;;;;18.70;4.70;;;;;;;;;;4991883;28;20296;-67
2022/05/15 09:52:22;;;;;;;15.95;4.72;;;;;;;;;;4992477;28;20353;-67
2022/05/15 09:54:49;;;;;;;18.05;4.72;;;;;;;;;;4996981;28;20041;-68
2022/05/15 09:57:17;;;;;;;17.13;5.78;;;;;;;;;;4992920;28;20531;-67
2022/05/15 09:59:50;;;;;;;16.83;4.93;;;;;;;;;;4987435;28;20557;-71
2022/05/15 10:02:17;;;;;;;17.23;5.10;;;;;;;;;;4996005;28;21207;-69
2022/05/15 10:04:46;;;;;;;14.50;5.20;;;;;;;;;;4997313;28;20056;-67
2022/05/15 10:07:27;;;;;;;15.45;5.50;;;;;;;;;;4990980;28;20073;-70
2022/05/15 10:09:53;;;;;;;18.63;4.93;;;;;;;;;;5003217;28;20811;-71
2022/05/15 10:12:27;;;;;;;16.77;4.93;;;;;;;;;;5013047;28;20049;-70
2022/05/15 10:15:05;;;;;;;15.02;4.65;;;;;;;;;;5003647;28;20063;-71
2022/05/15 10:17:34;;;;;;;17.58;5.50;;;;;;;;;;5000284;28;20106;-71
2022/05/15 10:20:04;;;;;;;14.23;4.95;;;;;;;;;;4996556;28;20101;-69
2022/05/15 10:22:38;;;;;;;13.73;4.95;;;;;;;;;;4995566;28;20979;-69
2022/05/15 10:25:25;;;;;;;14.95;4.68;;;;;;;;;;4993107;28;20564;-68
2022/05/15 10:27:55;;;;;;;16.90;4.65;;;;;;;;;;4996803;28;20045;-69
2022/05/15 10:30:24;;;;;;;17.20;4.30;;;;;;;;;;4985927;28;20045;-69
2022/05/15 10:32:57;;;;;;;16.05;4.72;;;;;;;;;;4988254;28;20904;-68
2022/05/15 10:35:32;;;;;;;16.15;4.72;;;;;;;;;;4990074;28;20119;-69
2022/05/15 10:38:12;;;;;;;17.40;4.97;;;;;;;;;;5012530;28;20189;-69
2022/05/15 10:40:46;;;;;;;17.00;5.03;;;;;;;;;;4996409;28;20992;-69
2022/05/15 10:43:30;;;;;;;15.98;4.47;;;;;;;;;;4998781;28;20068;-70
2022/05/15 10:46:05;;;;;;;16.75;5.13;;;;;;;;;;4997149;28;20045;-70
2022/05/15 10:48:30;;;;;;;16.83;4.90;;;;;;;;;;4998474;28;20041;-70
2022/05/15 10:51:03;;;;;;;15.77;4.47;;;;;;;;;;4998799;28;20048;-69
2022/05/15 10:59:53;;;;;;;14.93;4.32;;;;;;;;;;4992986;28;20080;-69
2022/05/15 11:02:37;;;;;;;15.88;4.43;;;;;;;;;;4984397;28;20036;-71
2022/05/15 11:05:05;;;;;;;18.27;4.85;;;;;;;;;;4993310;28;20120;-67
2022/05/15 11:07:55;;;;;;;16.50;4.50;;;;;;;;;;4993375;28;20493;-66
2022/05/15 11:10:24;;;;;;;17.35;4.65;;;;;;;;;;4995420;28;20045;-67
2022/05/15 11:13:09;;;;;;;14.50;4.55;;;;;;;;;;4992822;28;20048;-67
2022/05/15 11:15:48;;;;;;;13.52;4.43;;;;;;;;;;4991612;28;20041;-69
2022/05/15 11:18:21;;;;;;;15.55;4.38;;;;;;;;;;4990929;28;20418;-68
2022/05/15 11:20:47;;;;;;;;;;;;;;;;;;4991425;28;20210;-68
2022/05/15 11:23:16;;;;;;;14.50;4.35;;;;;;;;;;4988041;28;20456;-69
2022/05/15 11:25:48;;;;;;;15.15;4.03;;;;;;;;;;4993075;28;20036;-69
2022/05/15 11:28:18;;;;;;;14.32;4.22;;;;;;;;;;4993570;28;20585;-69
2022/05/15 11:30:45;;;;;;;16.10;3.87;;;;;;;;;;4993135;28;20037;-69
2022/05/15 11:33:25;;;;;;;16.50;5.63;;;;;;;;;;4994346;28;20652;-68
2022/05/15 11:36:09;;;;;;;14.48;4.03;;;;;;;;;;4990602;28;20030;-68
2022/05/15 11:38:44;;;;;;;12.18;3.78;;;;;;;;;;4997386;28;20472;-68
2022/05/15 11:41:31;;;;;;;12.52;4.13;;;;;;;;;;4993538;28;20068;-68
2022/05/15 11:44:00;;;;;;;12.55;3.97;;;;;;;;;;4993922;28;20029;-68
2022/05/15 11:46:43;;;;;;;15.52;4.38;;;;;;;;;;4990786;28;20577;-68
2022/05/15 11:49:24;;;;;;;14.20;4.00;;;;;;;;;;4994673;28;20130;-68
2022/05/15 11:52:12;;;;;;;12.75;3.65;;;;;;;;;;4992245;28;20114;-68
2022/05/15 11:54:40;;;;;;;12.63;3.65;;;;;;;;;;4993171;28;20041;-68
2022/05/15 11:57:10;;;;;;;14.98;3.65;;;;;;;;;;4993320;28;20167;-67
2022/05/15 11:59:50;;;;;;;16.08;4.07;;;;;;;;;;4992776;28;20664;-68
2022/05/15 12:02:31;;;;;;;19.95;5.40;;;;;;;;;;4993837;28;20029;-68
2022/05/15 12:05:09;;;;;;;15.27;4.00;;;;;;;;;;4992295;28;21208;-69
2022/05/15 12:07:52;;;;;;;15.20;4.32;;;;;;;;;;4969290;28;20295;-68
2022/05/15 12:10:21;;;;;;;11.90;3.63;;;;;;;;;;4992465;28;20053;-69
2022/05/15 12:13:06;;;;;;;13.30;4.43;;;;;;;;;;5001547;28;20168;-69
2022/05/15 12:15:37;;;;;;;17.73;4.40;;;;;;;;;;4998014;28;20144;-69
2022/05/15 12:18:02;;;;;;;;;;;;;;;;;;4998047;28;20104;-74
2022/05/15 12:20:28;;;;;;;11.43;3.67;;;;;;;;;;4995650;28;19974;-68
2022/05/15 12:22:59;;;;;;;12.23;4.03;;;;;;;;;;4996428;28;20155;-69
2022/05/15 12:25:31;;;;;;;14.23;4.20;;;;;;;;;;5010961;28;20208;-69
2022/05/15 12:31:18;;;;;;;16.65;4.35;;;;;;;;;;4995600;28;20037;-68
2022/05/15 12:34:05;;;;;;;14.68;3.90;;;;;;;;;;4975774;28;20045;-68
2022/05/15 12:36:34;;;;;;;13.50;3.60;;;;;;;;;;4975403;28;20126;-69
2022/05/15 12:39:01;;;;;;;20.30;4.63;;;;;;;;;;4976327;28;20038;-69
2022/05/15 12:41:29;;;;;;;13.65;4.03;;;;;;;;;;4978259;28;20037;-68
2022/05/15 12:43:54;;;;;;;9.20;3.30;;;;;;;;;;4977657;28;20675;-69
2022/05/15 12:46:23;;;;;;;13.15;3.95;;;;;;;;;;4958739;28;20072;-67
2022/05/15 12:48:48;;;;;;;14.70;4.30;;;;;;;;;;4973165;28;20547;-67
2022/05/15 12:51:16;;;;;;;13.98;3.83;;;;;;;;;;4979942;28;20423;-68
2022/05/15 12:53:45;;;;;;;12.05;3.63;;;;;;;;;;4975135;28;20113;-67
2022/05/15 12:56:49;;;;;;;15.10;4.53;;;;;;;;;;4978302;28;20192;-68
2022/05/15 12:59:18;;;;;;;13.82;4.00;;;;;;;;;;4879613;29;20178;-68
2022/05/15 13:01:44;;;;;;;15.18;4.20;;;;;;;;;;4960904;28;20057;-68
2022/05/15 13:04:15;;;;;;;12.48;3.80;;;;;;;;;;4980269;28;20168;-72
2022/05/15 13:06:47;;;;;;;;;;;;;;;;;;4998792;28;20657;-68
2022/05/15 13:09:19;;;;;;;11.57;4.07;;;;;;;;;;4997045;28;20009;-67
2022/05/15 13:11:47;;;;;;;12.52;4.07;;;;;;;;;;4995898;28;20037;-68
2022/05/15 13:14:27;;;;;;;14.15;3.83;;;;;;;;;;4993461;28;20112;-69
2022/05/15 13:16:53;;;;;;;14.45;3.45;;;;;;;;;;4997704;28;20524;-67
2022/05/15 13:19:29;;;;;;;12.93;3.53;;;;;;;;;;4991850;28;20033;-69
2022/05/15 13:21:56;;;;;;;13.30;4.20;;;;;;;;;;4995815;28;20041;-68
2022/05/15 13:24:25;;;;;;;14.93;3.70;;;;;;;;;;4992782;28;20591;-70
2022/05/15 13:26:53;;;;;;;10.63;3.67;;;;;;;;;;5008058;28;20052;-68
2022/05/15 13:29:22;;;;;;;11.90;4.10;;;;;;;;;;4988007;28;20052;-68
2022/05/15 13:31:49;;;;;;;13.75;4.88;;;;;;;;;;4992451;28;20045;-69
2022/05/15 13:34:16;;;;;;;14.93;4.32;;;;;;;;;;4994324;28;20040;-71
2022/05/15 13:36:50;;;;;;;19.40;11.15;;;;;;;;;;4993567;28;20269;-68
2022/05/15 13:44:49;;;;;;;16.88;7.00;;;;;;;;;;4994354;28;20113;-68
2022/05/15 13:47:14;;;;;;;10.45;3.60;;;;;;;;;;4983583;28;20045;-69
2022/05/15 13:49:53;;;;;;;15.07;4.30;;;;;;;;;;4984332;28;20037;-67
2022/05/15 13:52:21;;;;;;;12.60;3.63;;;;;;;;;;4987376;28;20099;-69
2022/05/15 13:54:46;;;;;;;12.00;4.00;;;;;;;;;;4985705;28;20043;-69
2022/05/15 13:57:14;;;;;;;13.60;3.40;;;;;;;;;;5001913;28;20032;-69
2022/05/15 13:59:46;;;;;;;10.73;2.80;;;;;;;;;;4983089;28;20256;-69
2022/05/15 14:02:13;;;;;;;8.45;3.13;;;;;;;;;;4986629;28;20029;-68
2022/05/15 14:04:40;;;;;;;10.13;3.60;;;;;;;;;;4985149;28;20194;-69
2022/05/15 14:07:06;;;;;;;11.00;3.40;;;;;;;;;;4984192;28;20790;-71
2022/05/15 14:09:49;;;;;;;12.25;3.30;;;;;;;;;;4985167;28;20037;-68
2022/05/15 14:12:18;;;;;;;9.38;3.55;;;;;;;;;;4988150;28;20155;-68
2022/05/15 14:15:00;;;;;;;9.55;3.20;;;;;;;;;;4981697;28;20044;-68
2022/05/15 14:17:29;;;;;;;11.50;3.13;;;;;;;;;;4980246;28;20131;-68
2022/05/15 14:20:07;;;;;;;10.82;3.08;;;;;;;;;;4986488;28;20064;-68
2022/05/15 14:22:36;;;;;;;15.38;6.25;;;;;;;;;;4988524;28;20049;-71
2022/05/15 14:25:02;;;;;;;10.85;3.33;;;;;;;;;;4989231;28;20180;-68
2022/05/15 14:27:27;;;;;;;11.77;3.10;;;;;;;;;;4990195;28;20964;-68
2022/05/15 14:29:56;;;;;;;12.88;3.70;;;;;;;;;;4988677;28;20071;-69
2022/05/15 14:32:23;;;;;;;12.15;3.53;;;;;;;;;;4985535;28;20951;-69
2022/05/15 14:34:49;;;;;;;13.40;3.60;;;;;;;;;;4987025;28;20033;-67
2022/05/15 14:37:14;;;;;;;13.15;4.85;;;;;;;;;;4983664;28;20080;-66
2022/05/15 14:39:39;;;;;;;12.05;3.72;;;;;;;;;;4988060;28;20037;-68
2022/05/15 14:42:05;;;;;;;9.63;3.42;;;;;;;;;;4982230;28;20025;-67
2022/05/15 14:44:31;;;;;;;12.18;4.55;;;;;;;;;;4985257;28;20032;-67
2022/05/15 14:46:56;;;;;;;12.35;4.40;;;;;;;;;;4988197;28;20132;-70
2022/05/15 14:49:24;;;;;;;11.13;3.60;;;;;;;;;;4992095;28;20037;-68
2022/05/15 14:51:49;;;;;;;11.68;3.60;;;;;;;;;;4996047;28;20030;-66
2022/05/15 14:54:19;;;;;;;11.70;2.75;;;;;;;;;;4997306;28;20888;-67
2022/05/15 14:56:45;;;;;;;8.45;3.00;;;;;;;;;;4996229;28;20357;-67
2022/05/15 14:59:14;;;;;;;11.93;3.42;;;;;;;;;;5012224;28;20055;-68
2022/05/15 15:01:40;;;;;;;12.15;3.22;;;;;;;;;;4998728;28;20805;-69
2022/05/15 15:04:08;;;;;;;9.93;3.40;;;;;;;;;;4998866;28;20033;-70
2022/05/15 15:06:34;;;;;;;18.33;9.90;;;;;;;;;;4996460;28;20873;-68
2022/05/15 15:09:01;;;;;;;10.90;3.10;;;;;;;;;;4994544;28;20026;-68